sensor_id;sensor_type;location;lat;lon;timestamp;temperature;humidity
72277;SHT30;61204;49.980;8.358;2023-12-14T00:01:21;3.92;99.99
72277;SHT30;61204;49.980;8.358;2023-12-14T00:03:47;3.85;99.99
72277;SHT30;61204;49.980;8.358;2023-12-14T00:06:13;3.90;99.99
72277;SHT30;61204;49.980;8.358;2023-12-14T00:08:40;3.99;99.99
72277;SHT30;61204;49.980;8.358;2023-12-14T00:11:07;4.07;99.99
72277;SHT30;61204;49.980;8.358;2023-12-14T00:13:34;4.07;99.99
72277;SHT30;61204;49.980;8.358;2023-12-14T00:16:00;4.20;99.99
72277;SHT30;61204;49.980;8.358;2023-12-14T00:18:31;4.14;99.99
72277;SHT30;61204;49.980;8.358;2023-12-14T00:20:57;4.30;99.84
72277;SHT30;61204;49.980;8.358;2023-12-14T00:23:23;4.42;99.42
72277;SHT30;61204;49.980;8.358;2023-12-14T00:25:51;4.45;99.11
72277;SHT30;61204;49.980;8.358;2023-12-14T00:28:17;4.41;98.85
72277;SHT30;61204;49.980;8.358;2023-12-14T00:30:43;4.36;98.70
72277;SHT30;61204;49.980;8.358;2023-12-14T00:33:08;4.30;98.61
72277;SHT30;61204;49.980;8.358;2023-12-14T00:35:39;4.23;98.56
72277;SHT30;61204;49.980;8.358;2023-12-14T00:38:04;4.14;98.57
72277;SHT30;61204;49.980;8.358;2023-12-14T00:40:30;4.02;98.74
72277;SHT30;61204;49.980;8.358;2023-12-14T00:42:57;4.00;98.85
72277;SHT30;61204;49.980;8.358;2023-12-14T00:45:23;4.06;98.91
72277;SHT30;61204;49.980;8.358;2023-12-14T00:47:49;3.93;98.93
72277;SHT30;61204;49.980;8.358;2023-12-14T00:50:14;3.75;99.12
72277;SHT30;61204;49.980;8.358;2023-12-14T00:52:40;3.83;99.40
72277;SHT30;61204;49.980;8.358;2023-12-14T00:55:06;3.72;99.34
72277;SHT30;61204;49.980;8.358;2023-12-14T00:57:34;3.72;99.35
72277;SHT30;61204;49.980;8.358;2023-12-14T00:59:59;3.65;99.56
72277;SHT30;61204;49.980;8.358;2023-12-14T01:02:25;3.50;99.64
72277;SHT30;61204;49.980;8.358;2023-12-14T01:04:50;3.37;99.99
72277;SHT30;61204;49.980;8.358;2023-12-14T01:07:16;3.23;99.99
72277;SHT30;61204;49.980;8.358;2023-12-14T01:09:41;3.07;99.99
72277;SHT30;61204;49.980;8.358;2023-12-14T01:12:07;3.16;99.99
72277;SHT30;61204;49.980;8.358;2023-12-14T01:14:32;3.19;99.99
72277;SHT30;61204;49.980;8.358;2023-12-14T01:17:00;3.30;99.99
72277;SHT30;61204;49.980;8.358;2023-12-14T01:19:26;3.42;99.99
72277;SHT30;61204;49.980;8.358;2023-12-14T01:21:52;3.37;99.99
72277;SHT30;61204;49.980;8.358;2023-12-14T01:24:20;3.31;99.99
72277;SHT30;61204;49.980;8.358;2023-12-14T01:26:46;3.30;99.99
72277;SHT30;61204;49.980;8.358;2023-12-14T01:29:11;3.34;99.99
72277;SHT30;61204;49.980;8.358;2023-12-14T01:31:37;3.45;99.99
72277;SHT30;61204;49.980;8.358;2023-12-14T01:34:02;3.50;99.99
72277;SHT30;61204;49.980;8.358;2023-12-14T01:36:28;3.34;99.94
72277;SHT30;61204;49.980;8.358;2023-12-14T01:38:54;3.16;99.99
72277;SHT30;61204;49.980;8.358;2023-12-14T01:41:19;3.03;99.99
72277;SHT30;61204;49.980;8.358;2023-12-14T01:43:47;2.99;99.99
72277;SHT30;61204;49.980;8.358;2023-12-14T01:46:13;2.99;99.99
72277;SHT30;61204;49.980;8.358;2023-12-14T01:48:40;2.97;99.99
72277;SHT30;61204;49.980;8.358;2023-12-14T01:51:06;3.12;99.99
72277;SHT30;61204;49.980;8.358;2023-12-14T01:53:31;3.10;99.99
72277;SHT30;61204;49.980;8.358;2023-12-14T01:55:57;3.19;99.99
72277;SHT30;61204;49.980;8.358;2023-12-14T01:58:22;3.27;99.99
72277;SHT30;61204;49.980;8.358;2023-12-14T02:01:19;3.23;99.99
72277;SHT30;61204;49.980;8.358;2023-12-14T02:03:54;3.20;99.99
72277;SHT30;61204;49.980;8.358;2023-12-14T02:06:20;3.27;99.99
72277;SHT30;61204;49.980;8.358;2023-12-14T02:08:46;3.40;99.99
72277;SHT30;61204;49.980;8.358;2023-12-14T02:11:12;3.48;99.99
72277;SHT30;61204;49.980;8.358;2023-12-14T02:13:40;3.51;99.99
72277;SHT30;61204;49.980;8.358;2023-12-14T02:16:06;3.52;99.99
72277;SHT30;61204;49.980;8.358;2023-12-14T02:18:31;3.54;99.99
72277;SHT30;61204;49.980;8.358;2023-12-14T02:20:57;3.61;99.99
72277;SHT30;61204;49.980;8.358;2023-12-14T02:23:22;3.57;99.99
72277;SHT30;61204;49.980;8.358;2023-12-14T02:25:48;3.62;99.99
72277;SHT30;61204;49.980;8.358;2023-12-14T02:28:14;3.67;99.99
72277;SHT30;61204;49.980;8.358;2023-12-14T02:30:39;3.78;99.99
72277;SHT30;61204;49.980;8.358;2023-12-14T02:33:05;3.96;99.99
72277;SHT30;61204;49.980;8.358;2023-12-14T02:35:32;4.07;99.99
72277;SHT30;61204;49.980;8.358;2023-12-14T02:37:58;4.21;99.99
72277;SHT30;61204;49.980;8.358;2023-12-14T02:40:23;4.33;99.94
72277;SHT30;61204;49.980;8.358;2023-12-14T02:42:49;4.24;99.59
72277;SHT30;61204;49.980;8.358;2023-12-14T02:45:14;4.10;99.49
72277;SHT30;61204;49.980;8.358;2023-12-14T02:47:40;4.06;99.74
72277;SHT30;61204;49.980;8.358;2023-12-14T02:50:08;3.99;99.86
72277;SHT30;61204;49.980;8.358;2023-12-14T02:52:34;4.07;99.99
72277;SHT30;61204;49.980;8.358;2023-12-14T02:55:00;4.18;99.99
72277;SHT30;61204;49.980;8.358;2023-12-14T02:57:26;4.42;99.99
72277;SHT30;61204;49.980;8.358;2023-12-14T02:59:51;4.44;99.47
72277;SHT30;61204;49.980;8.358;2023-12-14T03:02:17;4.57;98.81
72277;SHT30;61204;49.980;8.358;2023-12-14T03:04:42;4.62;98.53
72277;SHT30;61204;49.980;8.358;2023-12-14T03:07:11;4.69;98.03
72277;SHT30;61204;49.980;8.358;2023-12-14T03:09:39;4.68;98.09
72277;SHT30;61204;49.980;8.358;2023-12-14T03:12:10;4.75;97.93
72277;SHT30;61204;49.980;8.358;2023-12-14T03:14:36;4.79;97.90
72277;SHT30;61204;49.980;8.358;2023-12-14T03:17:04;4.73;97.83
72277;SHT30;61204;49.980;8.358;2023-12-14T03:19:32;4.73;98.28
72277;SHT30;61204;49.980;8.358;2023-12-14T03:21:57;4.80;98.30
72277;SHT30;61204;49.980;8.358;2023-12-14T03:24:25;4.76;98.34
72277;SHT30;61204;49.980;8.358;2023-12-14T03:26:50;4.73;98.38
72277;SHT30;61204;49.980;8.358;2023-12-14T03:29:16;4.82;98.39
72277;SHT30;61204;49.980;8.358;2023-12-14T03:31:44;4.90;98.52
72277;SHT30;61204;49.980;8.358;2023-12-14T03:34:12;4.87;98.35
72277;SHT30;61204;49.980;8.358;2023-12-14T03:36:40;4.71;98.33
72277;SHT30;61204;49.980;8.358;2023-12-14T03:39:06;4.78;98.60
72277;SHT30;61204;49.980;8.358;2023-12-14T03:41:32;4.79;98.87
72277;SHT30;61204;49.980;8.358;2023-12-14T03:43:57;4.82;98.81
72277;SHT30;61204;49.980;8.358;2023-12-14T03:46:23;4.75;98.95
72277;SHT30;61204;49.980;8.358;2023-12-14T03:48:49;4.75;99.02
72277;SHT30;61204;49.980;8.358;2023-12-14T03:51:19;4.75;99.00
72277;SHT30;61204;49.980;8.358;2023-12-14T03:53:45;4.73;99.02
72277;SHT30;61204;49.980;8.358;2023-12-14T03:56:11;4.61;98.71
72277;SHT30;61204;49.980;8.358;2023-12-14T03:58:37;4.75;99.03
72277;SHT30;61204;49.980;8.358;2023-12-14T04:01:02;4.73;98.57
72277;SHT30;61204;49.980;8.358;2023-12-14T04:03:28;4.68;98.66
72277;SHT30;61204;49.980;8.358;2023-12-14T04:05:54;4.64;98.70
72277;SHT30;61204;49.980;8.358;2023-12-14T04:08:19;4.64;98.85
72277;SHT30;61204;49.980;8.358;2023-12-14T04:10:45;4.59;98.82
72277;SHT30;61204;49.980;8.358;2023-12-14T04:13:10;4.61;99.00
72277;SHT30;61204;49.980;8.358;2023-12-14T04:15:39;4.59;99.05
72277;SHT30;61204;49.980;8.358;2023-12-14T04:18:07;4.62;99.10
72277;SHT30;61204;49.980;8.358;2023-12-14T04:20:34;4.62;99.18
72277;SHT30;61204;49.980;8.358;2023-12-14T04:22:59;4.67;98.89
72277;SHT30;61204;49.980;8.358;2023-12-14T04:25:25;4.52;98.82
72277;SHT30;61204;49.980;8.358;2023-12-14T04:27:52;4.51;99.03
72277;SHT30;61204;49.980;8.358;2023-12-14T04:30:18;4.40;99.13
72277;SHT30;61204;49.980;8.358;2023-12-14T04:32:46;4.41;99.46
72277;SHT30;61204;49.980;8.358;2023-12-14T04:35:13;4.42;99.66
72277;SHT30;61204;49.980;8.358;2023-12-14T04:37:38;4.42;99.79
72277;SHT30;61204;49.980;8.358;2023-12-14T04:40:04;4.54;99.87
72277;SHT30;61204;49.980;8.358;2023-12-14T04:42:30;4.82;99.77
72277;SHT30;61204;49.980;8.358;2023-12-14T04:44:56;4.92;98.88
72277;SHT30;61204;49.980;8.358;2023-12-14T04:47:21;4.73;98.56
72277;SHT30;61204;49.980;8.358;2023-12-14T04:49:47;4.64;98.85
72277;SHT30;61204;49.980;8.358;2023-12-14T04:52:13;4.69;99.23
72277;SHT30;61204;49.980;8.358;2023-12-14T04:54:38;4.65;99.34
72277;SHT30;61204;49.980;8.358;2023-12-14T04:57:08;4.61;99.34
72277;SHT30;61204;49.980;8.358;2023-12-14T04:59:33;4.64;99.48
72277;SHT30;61204;49.980;8.358;2023-12-14T05:01:59;4.59;99.49
72277;SHT30;61204;49.980;8.358;2023-12-14T05:04:27;4.50;99.39
72277;SHT30;61204;49.980;8.358;2023-12-14T05:06:52;4.47;99.54
72277;SHT30;61204;49.980;8.358;2023-12-14T05:09:18;4.47;99.61
72277;SHT30;61204;49.980;8.358;2023-12-14T05:11:43;4.45;99.67
72277;SHT30;61204;49.980;8.358;2023-12-14T05:14:09;4.47;99.77
72277;SHT30;61204;49.980;8.358;2023-12-14T05:16:37;4.48;99.84
72277;SHT30;61204;49.980;8.358;2023-12-14T05:19:02;4.44;99.79
72277;SHT30;61204;49.980;8.358;2023-12-14T05:21:28;4.45;99.89
72277;SHT30;61204;49.980;8.358;2023-12-14T05:23:54;4.47;99.96
72277;SHT30;61204;49.980;8.358;2023-12-14T05:26:19;4.42;99.94
72277;SHT30;61204;49.980;8.358;2023-12-14T05:28:45;4.42;99.95
72277;SHT30;61204;49.980;8.358;2023-12-14T05:31:10;4.40;99.99
72277;SHT30;61204;49.980;8.358;2023-12-14T05:33:38;4.40;99.99
72277;SHT30;61204;49.980;8.358;2023-12-14T05:36:05;4.40;99.99
72277;SHT30;61204;49.980;8.358;2023-12-14T05:38:38;4.36;99.99
72277;SHT30;61204;49.980;8.358;2023-12-14T05:41:04;4.40;99.99
72277;SHT30;61204;49.980;8.358;2023-12-14T05:43:30;4.38;99.99
72277;SHT30;61204;49.980;8.358;2023-12-14T05:45:56;4.41;99.99
72277;SHT30;61204;49.980;8.358;2023-12-14T05:48:21;4.41;99.99
72277;SHT30;61204;49.980;8.358;2023-12-14T05:50:47;4.58;99.99
72277;SHT30;61204;49.980;8.358;2023-12-14T05:53:13;4.62;99.99
72277;SHT30;61204;49.980;8.358;2023-12-14T05:55:38;4.57;99.84
72277;SHT30;61204;49.980;8.358;2023-12-14T05:58:06;4.47;99.67
72277;SHT30;61204;49.980;8.358;2023-12-14T06:00:33;4.38;99.73
72277;SHT30;61204;49.980;8.358;2023-12-14T06:03:01;4.33;99.90
72277;SHT30;61204;49.980;8.358;2023-12-14T06:05:27;4.41;99.99
72277;SHT30;61204;49.980;8.358;2023-12-14T06:07:52;4.41;99.98
72277;SHT30;61204;49.980;8.358;2023-12-14T06:10:18;4.40;99.99
72277;SHT30;61204;49.980;8.358;2023-12-14T06:12:47;4.55;99.99
72277;SHT30;61204;49.980;8.358;2023-12-14T06:15:13;4.71;99.81
72277;SHT30;61204;49.980;8.358;2023-12-14T06:17:41;4.65;99.56
72277;SHT30;61204;49.980;8.358;2023-12-14T06:20:08;4.50;99.53
72277;SHT30;61204;49.980;8.358;2023-12-14T06:22:38;4.45;99.61
72277;SHT30;61204;49.980;8.358;2023-12-14T06:25:05;4.48;99.71
72277;SHT30;61204;49.980;8.358;2023-12-14T06:27:31;4.50;99.83
72277;SHT30;61204;49.980;8.358;2023-12-14T06:29:56;4.47;99.86
72277;SHT30;61204;49.980;8.358;2023-12-14T06:32:22;4.41;99.88
72277;SHT30;61204;49.980;8.358;2023-12-14T06:34:50;4.42;99.99
72277;SHT30;61204;49.980;8.358;2023-12-14T06:37:16;4.58;99.99
72277;SHT30;61204;49.980;8.358;2023-12-14T06:39:42;4.82;99.99
72277;SHT30;61204;49.980;8.358;2023-12-14T06:42:07;4.85;99.74
72277;SHT30;61204;49.980;8.358;2023-12-14T06:44:33;4.79;99.38
72277;SHT30;61204;49.980;8.358;2023-12-14T06:46:59;4.69;99.38
72277;SHT30;61204;49.980;8.358;2023-12-14T06:49:25;4.71;99.53
72277;SHT30;61204;49.980;8.358;2023-12-14T06:51:51;4.67;99.69
72277;SHT30;61204;49.980;8.358;2023-12-14T06:54:16;4.68;99.76
72277;SHT30;61204;49.980;8.358;2023-12-14T06:56:42;4.67;99.91
72277;SHT30;61204;49.980;8.358;2023-12-14T06:59:08;4.76;99.95
72277;SHT30;61204;49.980;8.358;2023-12-14T07:01:34;4.80;99.96
72277;SHT30;61204;49.980;8.358;2023-12-14T07:04:00;4.82;99.84
72277;SHT30;61204;49.980;8.358;2023-12-14T07:06:25;4.80;99.73
72277;SHT30;61204;49.980;8.358;2023-12-14T07:08:51;4.79;99.76
72277;SHT30;61204;49.980;8.358;2023-12-14T07:11:17;4.75;99.82
72277;SHT30;61204;49.980;8.358;2023-12-14T07:13:42;4.73;99.86
72277;SHT30;61204;49.980;8.358;2023-12-14T07:16:10;4.68;99.84
72277;SHT30;61204;49.980;8.358;2023-12-14T07:18:38;4.72;99.90
72277;SHT30;61204;49.980;8.358;2023-12-14T07:21:06;4.99;99.91
72277;SHT30;61204;49.980;8.358;2023-12-14T07:23:34;4.82;99.52
72277;SHT30;61204;49.980;8.358;2023-12-14T07:26:02;4.83;99.58
72277;SHT30;61204;49.980;8.358;2023-12-14T07:28:29;4.90;99.53
72277;SHT30;61204;49.980;8.358;2023-12-14T07:30:54;4.83;99.39
72277;SHT30;61204;49.980;8.358;2023-12-14T07:33:20;4.79;99.42
72277;SHT30;61204;49.980;8.358;2023-12-14T07:35:46;4.78;99.50
72277;SHT30;61204;49.980;8.358;2023-12-14T07:38:13;4.73;99.58
72277;SHT30;61204;49.980;8.358;2023-12-14T07:40:40;4.68;99.57
72277;SHT30;61204;49.980;8.358;2023-12-14T07:43:08;4.67;99.76
72277;SHT30;61204;49.980;8.358;2023-12-14T07:45:34;4.69;99.99
72277;SHT30;61204;49.980;8.358;2023-12-14T07:48:00;4.75;99.99
72277;SHT30;61204;49.980;8.358;2023-12-14T07:50:26;4.86;99.99
72277;SHT30;61204;49.980;8.358;2023-12-14T07:52:52;4.93;99.99
72277;SHT30;61204;49.980;8.358;2023-12-14T07:55:18;5.06;99.99
72277;SHT30;61204;49.980;8.358;2023-12-14T07:57:44;5.14;99.99
72277;SHT30;61204;49.980;8.358;2023-12-14T08:00:10;5.23;99.99
72277;SHT30;61204;49.980;8.358;2023-12-14T08:02:37;5.34;99.99
72277;SHT30;61204;49.980;8.358;2023-12-14T08:05:03;5.65;99.99
72277;SHT30;61204;49.980;8.358;2023-12-14T08:07:31;5.85;99.71
72277;SHT30;61204;49.980;8.358;2023-12-14T08:09:58;5.90;98.99
72277;SHT30;61204;49.980;8.358;2023-12-14T08:12:24;5.95;98.33
72277;SHT30;61204;49.980;8.358;2023-12-14T08:14:51;5.89;98.35
72277;SHT30;61204;49.980;8.358;2023-12-14T08:17:17;5.90;98.57
72277;SHT30;61204;49.980;8.358;2023-12-14T08:19:43;6.03;98.71
72277;SHT30;61204;49.980;8.358;2023-12-14T08:22:10;6.16;98.67
72277;SHT30;61204;49.980;8.358;2023-12-14T08:24:41;6.44;98.41
72277;SHT30;61204;49.980;8.358;2023-12-14T08:27:07;6.31;97.68
72277;SHT30;61204;49.980;8.358;2023-12-14T08:29:33;6.52;97.58
72277;SHT30;61204;49.980;8.358;2023-12-14T08:31:58;6.66;95.89
72277;SHT30;61204;49.980;8.358;2023-12-14T08:34:27;6.71;95.55
72277;SHT30;61204;49.980;8.358;2023-12-14T08:36:54;6.79;95.79
72277;SHT30;61204;49.980;8.358;2023-12-14T08:39:19;6.92;95.75
72277;SHT30;61204;49.980;8.358;2023-12-14T08:41:46;7.01;95.62
72277;SHT30;61204;49.980;8.358;2023-12-14T08:44:14;7.10;95.33
72277;SHT30;61204;49.980;8.358;2023-12-14T08:46:45;7.17;95.36
72277;SHT30;61204;49.980;8.358;2023-12-14T08:49:13;7.30;95.12
72277;SHT30;61204;49.980;8.358;2023-12-14T08:51:41;7.36;95.24
72277;SHT30;61204;49.980;8.358;2023-12-14T08:54:07;7.47;94.90
72277;SHT30;61204;49.980;8.358;2023-12-14T08:56:33;7.56;93.99
72277;SHT30;61204;49.980;8.358;2023-12-14T08:58:59;7.69;92.91
72277;SHT30;61204;49.980;8.358;2023-12-14T09:01:28;7.77;92.83
72277;SHT30;61204;49.980;8.358;2023-12-14T09:03:54;7.89;92.83
72277;SHT30;61204;49.980;8.358;2023-12-14T09:06:20;7.94;92.20
72277;SHT30;61204;49.980;8.358;2023-12-14T09:08:48;8.14;91.05
72277;SHT30;61204;49.980;8.358;2023-12-14T09:11:14;8.15;91.37
72277;SHT30;61204;49.980;8.358;2023-12-14T09:13:40;8.31;91.26
72277;SHT30;61204;49.980;8.358;2023-12-14T09:16:06;8.52;89.75
72277;SHT30;61204;49.980;8.358;2023-12-14T09:18:32;8.66;89.35
72277;SHT30;61204;49.980;8.358;2023-12-14T09:20:58;8.60;88.77
72277;SHT30;61204;49.980;8.358;2023-12-14T09:23:23;8.63;89.03
72277;SHT30;61204;49.980;8.358;2023-12-14T09:25:49;8.58;88.90
72277;SHT30;61204;49.980;8.358;2023-12-14T09:28:15;8.65;89.09
72277;SHT30;61204;49.980;8.358;2023-12-14T09:30:40;8.60;88.73
72277;SHT30;61204;49.980;8.358;2023-12-14T09:33:06;8.60;88.65
72277;SHT30;61204;49.980;8.358;2023-12-14T09:35:34;8.63;88.28
72277;SHT30;61204;49.980;8.358;2023-12-14T09:38:06;8.45;88.83
72277;SHT30;61204;49.980;8.358;2023-12-14T09:40:33;8.42;89.02
72277;SHT30;61204;49.980;8.358;2023-12-14T09:43:00;8.46;89.03
72277;SHT30;61204;49.980;8.358;2023-12-14T09:45:30;8.52;88.08
72277;SHT30;61204;49.980;8.358;2023-12-14T09:48:00;8.58;88.87
72277;SHT30;61204;49.980;8.358;2023-12-14T09:50:26;8.75;88.18
72277;SHT30;61204;49.980;8.358;2023-12-14T09:52:55;9.00;86.54
72277;SHT30;61204;49.980;8.358;2023-12-14T09:55:20;9.14;86.77
72277;SHT30;61204;49.980;8.358;2023-12-14T09:57:46;9.00;86.12
72277;SHT30;61204;49.980;8.358;2023-12-14T10:00:12;8.96;86.48
72277;SHT30;61204;49.980;8.358;2023-12-14T10:02:57;8.60;87.68
72277;SHT30;61204;49.980;8.358;2023-12-14T10:05:23;8.38;88.52
72277;SHT30;61204;49.980;8.358;2023-12-14T10:07:52;8.46;88.15
72277;SHT30;61204;49.980;8.358;2023-12-14T10:10:18;8.35;88.71
72277;SHT30;61204;49.980;8.358;2023-12-14T10:12:54;8.30;88.54
72277;SHT30;61204;49.980;8.358;2023-12-14T10:15:19;8.24;89.09
72277;SHT30;61204;49.980;8.358;2023-12-14T10:17:47;8.18;89.09
72277;SHT30;61204;49.980;8.358;2023-12-14T10:20:22;8.13;89.25
72277;SHT30;61204;49.980;8.358;2023-12-14T10:22:53;8.24;88.89
72277;SHT30;61204;49.980;8.358;2023-12-14T10:25:19;8.10;89.19
72277;SHT30;61204;49.980;8.358;2023-12-14T10:27:51;8.25;88.74
72277;SHT30;61204;49.980;8.358;2023-12-14T10:30:22;8.20;88.77
72277;SHT30;61204;49.980;8.358;2023-12-14T10:32:48;8.21;88.60
72277;SHT30;61204;49.980;8.358;2023-12-14T10:35:16;8.20;88.73
72277;SHT30;61204;49.980;8.358;2023-12-14T10:37:43;8.14;88.69
72277;SHT30;61204;49.980;8.358;2023-12-14T10:40:13;8.25;88.49
72277;SHT30;61204;49.980;8.358;2023-12-14T10:42:44;8.24;88.30
72277;SHT30;61204;49.980;8.358;2023-12-14T10:45:15;8.28;87.97
72277;SHT30;61204;49.980;8.358;2023-12-14T10:47:48;8.18;88.80
72277;SHT30;61204;49.980;8.358;2023-12-14T10:50:17;8.21;88.05
72277;SHT30;61204;49.980;8.358;2023-12-14T10:52:44;8.28;88.10
72277;SHT30;61204;49.980;8.358;2023-12-14T10:55:37;8.41;87.59
72277;SHT30;61204;49.980;8.358;2023-12-14T10:58:09;8.51;88.00
72277;SHT30;61204;49.980;8.358;2023-12-14T11:00:38;8.56;87.37
72277;SHT30;61204;49.980;8.358;2023-12-14T11:03:06;8.55;87.14
72277;SHT30;61204;49.980;8.358;2023-12-14T11:05:33;8.45;87.44
72277;SHT30;61204;49.980;8.358;2023-12-14T11:08:04;8.58;87.68
72277;SHT30;61204;49.980;8.358;2023-12-14T11:10:39;8.51;87.66
72277;SHT30;61204;49.980;8.358;2023-12-14T11:13:17;8.48;86.49
72277;SHT30;61204;49.980;8.358;2023-12-14T11:15:51;8.44;86.93
72277;SHT30;61204;49.980;8.358;2023-12-14T11:23:15;8.41;86.89
72277;SHT30;61204;49.980;8.358;2023-12-14T11:25:43;8.41;86.54
72277;SHT30;61204;49.980;8.358;2023-12-14T11:28:10;8.34;86.62
72277;SHT30;61204;49.980;8.358;2023-12-14T11:30:36;8.48;86.75
72277;SHT30;61204;49.980;8.358;2023-12-14T11:33:03;8.51;86.82
72277;SHT30;61204;49.980;8.358;2023-12-14T11:35:29;8.66;85.35
72277;SHT30;61204;49.980;8.358;2023-12-14T11:37:56;8.55;86.16
72277;SHT30;61204;49.980;8.358;2023-12-14T11:40:24;8.69;85.37
72277;SHT30;61204;49.980;8.358;2023-12-14T11:43:01;8.69;85.26
72277;SHT30;61204;49.980;8.358;2023-12-14T11:45:32;8.48;85.44
72277;SHT30;61204;49.980;8.358;2023-12-14T11:47:57;8.56;85.64
72277;SHT30;61204;49.980;8.358;2023-12-14T11:50:23;8.56;85.49
72277;SHT30;61204;49.980;8.358;2023-12-14T11:52:49;8.66;85.22
72277;SHT30;61204;49.980;8.358;2023-12-14T11:55:17;8.63;85.12
72277;SHT30;61204;49.980;8.358;2023-12-14T11:57:49;8.73;85.22
72277;SHT30;61204;49.980;8.358;2023-12-14T12:00:16;8.75;84.82
72277;SHT30;61204;49.980;8.358;2023-12-14T12:02:42;8.69;84.64
72277;SHT30;61204;49.980;8.358;2023-12-14T12:05:08;8.76;84.48
72277;SHT30;61204;49.980;8.358;2023-12-14T12:07:41;8.79;84.61
72277;SHT30;61204;49.980;8.358;2023-12-14T12:10:10;8.76;83.84
72277;SHT30;61204;49.980;8.358;2023-12-14T12:12:38;8.76;83.74
72277;SHT30;61204;49.980;8.358;2023-12-14T12:15:05;8.88;83.34
72277;SHT30;61204;49.980;8.358;2023-12-14T12:17:30;8.87;83.48
72277;SHT30;61204;49.980;8.358;2023-12-14T12:20:06;8.76;83.20
72277;SHT30;61204;49.980;8.358;2023-12-14T12:22:32;8.73;83.58
72277;SHT30;61204;49.980;8.358;2023-12-14T12:25:00;8.69;83.05
72277;SHT30;61204;49.980;8.358;2023-12-14T12:27:26;8.73;83.35
72277;SHT30;61204;49.980;8.358;2023-12-14T12:29:51;8.76;83.81
72277;SHT30;61204;49.980;8.358;2023-12-14T12:32:19;8.90;84.03
72277;SHT30;61204;49.980;8.358;2023-12-14T12:34:45;8.80;84.07
72277;SHT30;61204;49.980;8.358;2023-12-14T12:37:10;8.79;84.05
72277;SHT30;61204;49.980;8.358;2023-12-14T12:39:36;8.90;83.10
72277;SHT30;61204;49.980;8.358;2023-12-14T12:42:01;9.04;83.17
72277;SHT30;61204;49.980;8.358;2023-12-14T12:44:27;9.00;82.85
72277;SHT30;61204;49.980;8.358;2023-12-14T12:46:53;8.81;83.56
72277;SHT30;61204;49.980;8.358;2023-12-14T12:49:22;8.84;84.04
72277;SHT30;61204;49.980;8.358;2023-12-14T12:51:48;8.80;83.96
72277;SHT30;61204;49.980;8.358;2023-12-14T12:54:16;8.86;83.63
72277;SHT30;61204;49.980;8.358;2023-12-14T12:56:41;8.69;84.45
72277;SHT30;61204;49.980;8.358;2023-12-14T12:59:08;8.75;84.49
72277;SHT30;61204;49.980;8.358;2023-12-14T13:01:34;8.79;83.85
72277;SHT30;61204;49.980;8.358;2023-12-14T13:04:00;8.81;83.69
72277;SHT30;61204;49.980;8.358;2023-12-14T13:06:26;8.72;83.75
72277;SHT30;61204;49.980;8.358;2023-12-14T13:08:54;8.72;83.47
72277;SHT30;61204;49.980;8.358;2023-12-14T13:11:20;8.63;83.75
72277;SHT30;61204;49.980;8.358;2023-12-14T13:13:45;8.68;84.07
72277;SHT30;61204;49.980;8.358;2023-12-14T13:16:11;8.52;83.76
72277;SHT30;61204;49.980;8.358;2023-12-14T13:18:39;8.53;84.15
72277;SHT30;61204;49.980;8.358;2023-12-14T13:21:05;8.49;84.06
72277;SHT30;61204;49.980;8.358;2023-12-14T13:23:31;8.38;84.86
72277;SHT30;61204;49.980;8.358;2023-12-14T13:25:56;8.25;84.42
72277;SHT30;61204;49.980;8.358;2023-12-14T13:28:22;8.28;85.36
72277;SHT30;61204;49.980;8.358;2023-12-14T13:30:48;8.31;84.81
72277;SHT30;61204;49.980;8.358;2023-12-14T13:33:14;8.30;84.50
72277;SHT30;61204;49.980;8.358;2023-12-14T13:35:39;8.31;84.99
72277;SHT30;61204;49.980;8.358;2023-12-14T13:38:07;8.31;83.71
72277;SHT30;61204;49.980;8.358;2023-12-14T13:40:33;8.27;82.43
72277;SHT30;61204;49.980;8.358;2023-12-14T13:42:59;8.17;82.32
72277;SHT30;61204;49.980;8.358;2023-12-14T13:45:26;8.10;82.50
72277;SHT30;61204;49.980;8.358;2023-12-14T13:47:54;8.13;82.22
72277;SHT30;61204;49.980;8.358;2023-12-14T13:50:20;8.10;82.43
72277;SHT30;61204;49.980;8.358;2023-12-14T13:52:46;8.07;82.95
72277;SHT30;61204;49.980;8.358;2023-12-14T13:55:12;8.01;82.24
72277;SHT30;61204;49.980;8.358;2023-12-14T13:57:37;7.97;82.44
72277;SHT30;61204;49.980;8.358;2023-12-14T14:00:04;7.97;82.53
72277;SHT30;61204;49.980;8.358;2023-12-14T14:02:30;8.00;82.20
72277;SHT30;61204;49.980;8.358;2023-12-14T14:04:55;7.98;82.40
72277;SHT30;61204;49.980;8.358;2023-12-14T14:07:21;8.05;82.13
72277;SHT30;61204;49.980;8.358;2023-12-14T14:09:47;7.96;82.23
72277;SHT30;61204;49.980;8.358;2023-12-14T14:12:14;7.93;81.94
72277;SHT30;61204;49.980;8.358;2023-12-14T14:14:42;8.04;82.04
72277;SHT30;61204;49.980;8.358;2023-12-14T14:17:07;8.10;81.85
72277;SHT30;61204;49.980;8.358;2023-12-14T14:19:33;8.00;81.90
72277;SHT30;61204;49.980;8.358;2023-12-14T14:21:58;8.03;81.83
72277;SHT30;61204;49.980;8.358;2023-12-14T14:24:24;7.94;82.04
72277;SHT30;61204;49.980;8.358;2023-12-14T14:26:49;8.01;82.12
72277;SHT30;61204;49.980;8.358;2023-12-14T14:29:15;8.07;82.10
72277;SHT30;61204;49.980;8.358;2023-12-14T14:31:40;8.04;82.18
72277;SHT30;61204;49.980;8.358;2023-12-14T14:34:06;8.14;81.85
72277;SHT30;61204;49.980;8.358;2023-12-14T14:36:31;8.03;82.23
72277;SHT30;61204;49.980;8.358;2023-12-14T14:38:57;8.13;81.20
72277;SHT30;61204;49.980;8.358;2023-12-14T14:41:23;8.05;81.61
72277;SHT30;61204;49.980;8.358;2023-12-14T14:43:48;7.91;82.24
72277;SHT30;61204;49.980;8.358;2023-12-14T14:46:14;7.96;81.94
72277;SHT30;61204;49.980;8.358;2023-12-14T14:48:39;7.97;81.46
72277;SHT30;61204;49.980;8.358;2023-12-14T14:51:05;7.83;82.24
72277;SHT30;61204;49.980;8.358;2023-12-14T14:53:31;7.90;82.10
72277;SHT30;61204;49.980;8.358;2023-12-14T14:55:57;7.72;82.35
72277;SHT30;61204;49.980;8.358;2023-12-14T14:58:23;7.75;82.35
72277;SHT30;61204;49.980;8.358;2023-12-14T15:00:48;7.79;81.79
72277;SHT30;61204;49.980;8.358;2023-12-14T15:03:14;7.68;82.14
72277;SHT30;61204;49.980;8.358;2023-12-14T15:05:40;7.52;82.68
72277;SHT30;61204;49.980;8.358;2023-12-14T15:08:06;7.61;83.15
72277;SHT30;61204;49.980;8.358;2023-12-14T15:10:33;7.63;81.81
72277;SHT30;61204;49.980;8.358;2023-12-14T15:12:59;7.69;81.27
72277;SHT30;61204;49.980;8.358;2023-12-14T15:15:27;7.65;81.55
72277;SHT30;61204;49.980;8.358;2023-12-14T15:17:52;7.63;81.66
72277;SHT30;61204;49.980;8.358;2023-12-14T15:20:18;7.58;81.60
72277;SHT30;61204;49.980;8.358;2023-12-14T15:22:43;7.59;81.81
72277;SHT30;61204;49.980;8.358;2023-12-14T15:25:09;7.61;81.76
72277;SHT30;61204;49.980;8.358;2023-12-14T15:27:40;7.56;81.74
72277;SHT30;61204;49.980;8.358;2023-12-14T15:30:07;7.59;81.85
72277;SHT30;61204;49.980;8.358;2023-12-14T15:32:35;7.58;81.81
72277;SHT30;61204;49.980;8.358;2023-12-14T15:35:01;7.52;81.25
72277;SHT30;61204;49.980;8.358;2023-12-14T15:37:27;7.51;80.97
72277;SHT30;61204;49.980;8.358;2023-12-14T15:39:53;7.47;79.35
72277;SHT30;61204;49.980;8.358;2023-12-14T15:42:19;7.38;79.86
72277;SHT30;61204;49.980;8.358;2023-12-14T15:44:45;7.34;78.80
72277;SHT30;61204;49.980;8.358;2023-12-14T15:47:12;7.30;78.85